sensor_id;sensor_type;location;lat;lon;timestamp;P1;durP1;ratioP1;P2;durP2;ratioP2
40871;SDS011;26591;43.264;26.940;2023-11-19T00:00:24;4.00;;;2.40;;
40871;SDS011;26591;43.264;26.940;2023-11-19T00:02:50;3.08;;;2.20;;
40871;SDS011;26591;43.264;26.940;2023-11-19T00:05:16;4.15;;;2.72;;
40871;SDS011;26591;43.264;26.940;2023-11-19T00:07:41;3.25;;;2.53;;
40871;SDS011;26591;43.264;26.940;2023-11-19T00:10:10;3.38;;;2.47;;
40871;SDS011;26591;43.264;26.940;2023-11-19T00:12:41;7.97;;;3.63;;
40871;SDS011;26591;43.264;26.940;2023-11-19T00:15:09;7.40;;;4.60;;
40871;SDS011;26591;43.264;26.940;2023-11-19T00:17:37;4.72;;;3.50;;
40871;SDS011;26591;43.264;26.940;2023-11-19T00:20:06;5.35;;;3.47;;
40871;SDS011;26591;43.264;26.940;2023-11-19T00:22:33;5.10;;;3.55;;
40871;SDS011;26591;43.264;26.940;2023-11-19T00:24:58;5.57;;;3.60;;
40871;SDS011;26591;43.264;26.940;2023-11-19T00:27:24;5.18;;;3.90;;
40871;SDS011;26591;43.264;26.940;2023-11-19T00:29:50;5.57;;;4.40;;
40871;SDS011;26591;43.264;26.940;2023-11-19T00:32:15;6.30;;;4.22;;
40871;SDS011;26591;43.264;26.940;2023-11-19T00:34:43;5.95;;;4.53;;
40871;SDS011;26591;43.264;26.940;2023-11-19T00:37:09;4.38;;;3.83;;
40871;SDS011;26591;43.264;26.940;2023-11-19T00:39:35;6.53;;;4.47;;
40871;SDS011;26591;43.264;26.940;2023-11-19T00:42:00;5.75;;;4.90;;
40871;SDS011;26591;43.264;26.940;2023-11-19T00:44:26;6.22;;;4.40;;
40871;SDS011;26591;43.264;26.940;2023-11-19T00:46:52;4.15;;;3.15;;
40871;SDS011;26591;43.264;26.940;2023-11-19T00:49:18;5.13;;;3.15;;
40871;SDS011;26591;43.264;26.940;2023-11-19T00:51:44;4.72;;;3.47;;
40871;SDS011;26591;43.264;26.940;2023-11-19T00:54:10;4.43;;;2.80;;
40871;SDS011;26591;43.264;26.940;2023-11-19T00:56:36;6.50;;;3.92;;
40871;SDS011;26591;43.264;26.940;2023-11-19T00:59:02;6.15;;;3.55;;
40871;SDS011;26591;43.264;26.940;2023-11-19T01:01:29;5.40;;;3.83;;
40871;SDS011;26591;43.264;26.940;2023-11-19T01:03:55;5.10;;;4.25;;
40871;SDS011;26591;43.264;26.940;2023-11-19T01:06:28;5.18;;;3.50;;
40871;SDS011;26591;43.264;26.940;2023-11-19T01:08:55;7.05;;;4.80;;
40871;SDS011;26591;43.264;26.940;2023-11-19T01:11:24;6.70;;;4.75;;
40871;SDS011;26591;43.264;26.940;2023-11-19T01:13:50;5.60;;;4.15;;
40871;SDS011;26591;43.264;26.940;2023-11-19T01:16:16;5.30;;;3.75;;
40871;SDS011;26591;43.264;26.940;2023-11-19T01:18:42;5.30;;;3.78;;
40871;SDS011;26591;43.264;26.940;2023-11-19T01:21:08;4.85;;;3.85;;
40871;SDS011;26591;43.264;26.940;2023-11-19T01:23:35;5.32;;;3.47;;
40871;SDS011;26591;43.264;26.940;2023-11-19T01:26:02;4.90;;;3.83;;
40871;SDS011;26591;43.264;26.940;2023-11-19T01:28:27;5.18;;;3.50;;
40871;SDS011;26591;43.264;26.940;2023-11-19T01:30:53;3.95;;;3.17;;
40871;SDS011;26591;43.264;26.940;2023-11-19T01:33:18;5.15;;;3.55;;
40871;SDS011;26591;43.264;26.940;2023-11-19T01:35:46;4.82;;;3.45;;
40871;SDS011;26591;43.264;26.940;2023-11-19T01:38:12;4.63;;;3.50;;
40871;SDS011;26591;43.264;26.940;2023-11-19T01:40:37;5.03;;;4.35;;
40871;SDS011;26591;43.264;26.940;2023-11-19T01:43:03;5.55;;;3.92;;
40871;SDS011;26591;43.264;26.940;2023-11-19T01:45:29;5.32;;;4.35;;
40871;SDS011;26591;43.264;26.940;2023-11-19T01:47:56;6.65;;;4.93;;
40871;SDS011;26591;43.264;26.940;2023-11-19T01:50:24;6.30;;;4.30;;
40871;SDS011;26591;43.264;26.940;2023-11-19T01:52:51;7.35;;;4.45;;
40871;SDS011;26591;43.264;26.940;2023-11-19T01:55:19;5.90;;;4.40;;
40871;SDS011;26591;43.264;26.940;2023-11-19T01:57:46;5.22;;;4.32;;
40871;SDS011;26591;43.264;26.940;2023-11-19T02:00:14;8.88;;;4.45;;
40871;SDS011;26591;43.264;26.940;2023-11-19T02:02:41;7.20;;;4.90;;
40871;SDS011;26591;43.264;26.940;2023-11-19T02:05:08;9.35;;;5.97;;
40871;SDS011;26591;43.264;26.940;2023-11-19T02:07:35;7.22;;;5.22;;
40871;SDS011;26591;43.264;26.940;2023-11-19T02:10:00;9.98;;;5.13;;
40871;SDS011;26591;43.264;26.940;2023-11-19T02:12:26;8.45;;;5.30;;
40871;SDS011;26591;43.264;26.940;2023-11-19T02:14:53;6.68;;;5.25;;
40871;SDS011;26591;43.264;26.940;2023-11-19T02:17:26;7.72;;;5.28;;
40871;SDS011;26591;43.264;26.940;2023-11-19T02:19:52;6.97;;;5.20;;
40871;SDS011;26591;43.264;26.940;2023-11-19T02:22:18;9.07;;;6.45;;
40871;SDS011;26591;43.264;26.940;2023-11-19T02:24:44;8.32;;;5.50;;
40871;SDS011;26591;43.264;26.940;2023-11-19T02:27:15;9.30;;;6.72;;
40871;SDS011;26591;43.264;26.940;2023-11-19T02:29:51;9.40;;;6.63;;
40871;SDS011;26591;43.264;26.940;2023-11-19T02:32:18;7.97;;;5.10;;
40871;SDS011;26591;43.264;26.940;2023-11-19T02:34:45;9.32;;;6.63;;
40871;SDS011;26591;43.264;26.940;2023-11-19T02:37:11;8.30;;;5.60;;
40871;SDS011;26591;43.264;26.940;2023-11-19T02:39:37;7.88;;;6.13;;
40871;SDS011;26591;43.264;26.940;2023-11-19T02:42:02;8.18;;;6.30;;
40871;SDS011;26591;43.264;26.940;2023-11-19T02:44:28;8.00;;;5.75;;
40871;SDS011;26591;43.264;26.940;2023-11-19T02:46:55;9.48;;;5.65;;
40871;SDS011;26591;43.264;26.940;2023-11-19T02:49:24;9.73;;;6.47;;
40871;SDS011;26591;43.264;26.940;2023-11-19T02:51:50;10.07;;;6.70;;
40871;SDS011;26591;43.264;26.940;2023-11-19T02:54:16;12.50;;;6.30;;
40871;SDS011;26591;43.264;26.940;2023-11-19T02:56:42;8.73;;;5.95;;
40871;SDS011;26591;43.264;26.940;2023-11-19T02:59:08;10.60;;;6.45;;
40871;SDS011;26591;43.264;26.940;2023-11-19T03:01:43;10.10;;;6.80;;
40871;SDS011;26591;43.264;26.940;2023-11-19T03:04:13;8.52;;;5.85;;
40871;SDS011;26591;43.264;26.940;2023-11-19T03:06:42;11.60;;;7.82;;
40871;SDS011;26591;43.264;26.940;2023-11-19T03:09:07;9.52;;;7.07;;
40871;SDS011;26591;43.264;26.940;2023-11-19T03:11:35;9.70;;;6.75;;
40871;SDS011;26591;43.264;26.940;2023-11-19T03:14:01;12.05;;;8.70;;
40871;SDS011;26591;43.264;26.940;2023-11-19T03:16:28;10.10;;;6.40;;
40871;SDS011;26591;43.264;26.940;2023-11-19T03:18:53;9.27;;;6.88;;
40871;SDS011;26591;43.264;26.940;2023-11-19T03:21:19;11.38;;;8.27;;
40871;SDS011;26591;43.264;26.940;2023-11-19T03:23:44;9.35;;;7.30;;
40871;SDS011;26591;43.264;26.940;2023-11-19T03:26:12;9.52;;;7.45;;
40871;SDS011;26591;43.264;26.940;2023-11-19T03:28:38;8.73;;;6.25;;
40871;SDS011;26591;43.264;26.940;2023-11-19T03:31:07;13.30;;;7.78;;
40871;SDS011;26591;43.264;26.940;2023-11-19T03:33:35;10.52;;;7.53;;
40871;SDS011;26591;43.264;26.940;2023-11-19T03:36:01;11.90;;;7.88;;
40871;SDS011;26591;43.264;26.940;2023-11-19T03:38:26;12.27;;;7.88;;
40871;SDS011;26591;43.264;26.940;2023-11-19T03:40:51;12.98;;;8.05;;
40871;SDS011;26591;43.264;26.940;2023-11-19T03:43:17;13.50;;;7.05;;
40871;SDS011;26591;43.264;26.940;2023-11-19T03:45:44;10.43;;;7.03;;
40871;SDS011;26591;43.264;26.940;2023-11-19T03:48:09;12.98;;;8.68;;
40871;SDS011;26591;43.264;26.940;2023-11-19T03:50:35;14.35;;;8.82;;
40871;SDS011;26591;43.264;26.940;2023-11-19T03:53:00;12.95;;;8.60;;
40871;SDS011;26591;43.264;26.940;2023-11-19T03:55:27;11.30;;;7.53;;
40871;SDS011;26591;43.264;26.940;2023-11-19T03:57:54;9.00;;;6.65;;
40871;SDS011;26591;43.264;26.940;2023-11-19T04:00:24;14.50;;;8.88;;
40871;SDS011;26591;43.264;26.940;2023-11-19T04:02:50;12.38;;;8.23;;
40871;SDS011;26591;43.264;26.940;2023-11-19T04:05:15;14.52;;;8.93;;
40871;SDS011;26591;43.264;26.940;2023-11-19T04:07:43;12.05;;;7.75;;
40871;SDS011;26591;43.264;26.940;2023-11-19T04:10:09;14.07;;;9.60;;
40871;SDS011;26591;43.264;26.940;2023-11-19T04:12:35;10.82;;;7.70;;
40871;SDS011;26591;43.264;26.940;2023-11-19T04:15:01;13.27;;;9.15;;
40871;SDS011;26591;43.264;26.940;2023-11-19T04:17:26;14.00;;;9.95;;
40871;SDS011;26591;43.264;26.940;2023-11-19T04:19:52;13.38;;;9.15;;
40871;SDS011;26591;43.264;26.940;2023-11-19T04:22:17;12.82;;;8.00;;
40871;SDS011;26591;43.264;26.940;2023-11-19T04:24:42;12.32;;;8.00;;
40871;SDS011;26591;43.264;26.940;2023-11-19T04:27:10;15.05;;;9.48;;
40871;SDS011;26591;43.264;26.940;2023-11-19T04:29:36;10.27;;;7.05;;
40871;SDS011;26591;43.264;26.940;2023-11-19T04:32:02;11.15;;;7.03;;
40871;SDS011;26591;43.264;26.940;2023-11-19T04:34:27;10.40;;;8.35;;
40871;SDS011;26591;43.264;26.940;2023-11-19T04:36:53;14.73;;;9.82;;
40871;SDS011;26591;43.264;26.940;2023-11-19T04:39:19;11.95;;;8.18;;
40871;SDS011;26591;43.264;26.940;2023-11-19T04:41:48;12.75;;;8.55;;
40871;SDS011;26591;43.264;26.940;2023-11-19T04:44:15;13.77;;;8.93;;
40871;SDS011;26591;43.264;26.940;2023-11-19T04:46:41;16.25;;;9.63;;
40871;SDS011;26591;43.264;26.940;2023-11-19T04:49:09;14.43;;;8.63;;
40871;SDS011;26591;43.264;26.940;2023-11-19T04:51:42;13.25;;;8.02;;
40871;SDS011;26591;43.264;26.940;2023-11-19T04:54:08;14.23;;;9.77;;
40871;SDS011;26591;43.264;26.940;2023-11-19T04:56:34;17.48;;;9.90;;
40871;SDS011;26591;43.264;26.940;2023-11-19T04:59:01;12.55;;;8.75;;
40871;SDS011;26591;43.264;26.940;2023-11-19T05:01:27;13.82;;;7.43;;
40871;SDS011;26591;43.264;26.940;2023-11-19T05:03:53;10.27;;;7.25;;
40871;SDS011;26591;43.264;26.940;2023-11-19T05:06:18;10.13;;;7.43;;
40871;SDS011;26591;43.264;26.940;2023-11-19T05:08:44;11.52;;;7.35;;
40871;SDS011;26591;43.264;26.940;2023-11-19T05:11:11;15.23;;;8.73;;
40871;SDS011;26591;43.264;26.940;2023-11-19T05:13:43;12.52;;;8.13;;
40871;SDS011;26591;43.264;26.940;2023-11-19T05:16:10;14.65;;;9.68;;
40871;SDS011;26591;43.264;26.940;2023-11-19T05:18:39;16.27;;;10.02;;
40871;SDS011;26591;43.264;26.940;2023-11-19T05:21:23;12.48;;;7.80;;
40871;SDS011;26591;43.264;26.940;2023-11-19T05:23:49;11.68;;;8.15;;
40871;SDS011;26591;43.264;26.940;2023-11-19T05:26:21;11.48;;;8.15;;
40871;SDS011;26591;43.264;26.940;2023-11-19T05:28:48;13.05;;;9.18;;
40871;SDS011;26591;43.264;26.940;2023-11-19T05:31:16;11.07;;;7.65;;
40871;SDS011;26591;43.264;26.940;2023-11-19T05:33:43;11.55;;;8.45;;
40871;SDS011;26591;43.264;26.940;2023-11-19T05:36:08;12.63;;;9.55;;
40871;SDS011;26591;43.264;26.940;2023-11-19T05:38:37;14.35;;;8.48;;
40871;SDS011;26591;43.264;26.940;2023-11-19T05:41:03;11.13;;;8.20;;
40871;SDS011;26591;43.264;26.940;2023-11-19T05:43:29;12.93;;;9.13;;
40871;SDS011;26591;43.264;26.940;2023-11-19T05:45:55;12.43;;;8.07;;
40871;SDS011;26591;43.264;26.940;2023-11-19T05:48:21;13.70;;;9.27;;
40871;SDS011;26591;43.264;26.940;2023-11-19T05:50:47;12.45;;;8.57;;
40871;SDS011;26591;43.264;26.940;2023-11-19T05:53:14;11.50;;;7.22;;
40871;SDS011;26591;43.264;26.940;2023-11-19T05:55:40;16.65;;;9.68;;
40871;SDS011;26591;43.264;26.940;2023-11-19T05:58:13;16.48;;;9.68;;
40871;SDS011;26591;43.264;26.940;2023-11-19T06:00:39;16.85;;;10.25;;
40871;SDS011;26591;43.264;26.940;2023-11-19T06:03:05;11.48;;;7.20;;
40871;SDS011;26591;43.264;26.940;2023-11-19T06:05:32;10.32;;;6.80;;
40871;SDS011;26591;43.264;26.940;2023-11-19T06:07:58;11.15;;;8.32;;
40871;SDS011;26591;43.264;26.940;2023-11-19T06:10:24;11.45;;;7.82;;
40871;SDS011;26591;43.264;26.940;2023-11-19T06:12:59;11.70;;;7.95;;
40871;SDS011;26591;43.264;26.940;2023-11-19T06:15:27;12.93;;;8.55;;
40871;SDS011;26591;43.264;26.940;2023-11-19T06:17:53;15.02;;;8.32;;
40871;SDS011;26591;43.264;26.940;2023-11-19T06:20:25;10.02;;;7.00;;
40871;SDS011;26591;43.264;26.940;2023-11-19T06:22:52;13.05;;;8.23;;
40871;SDS011;26591;43.264;26.940;2023-11-19T06:25:19;13.25;;;8.63;;
40871;SDS011;26591;43.264;26.940;2023-11-19T06:27:44;11.23;;;8.13;;
40871;SDS011;26591;43.264;26.940;2023-11-19T06:30:10;12.50;;;7.95;;
40871;SDS011;26591;43.264;26.940;2023-11-19T06:32:36;10.90;;;7.28;;
40871;SDS011;26591;43.264;26.940;2023-11-19T06:35:02;15.30;;;10.20;;
40871;SDS011;26591;43.264;26.940;2023-11-19T06:37:29;14.55;;;9.73;;
40871;SDS011;26591;43.264;26.940;2023-11-19T06:39:55;10.57;;;7.82;;
40871;SDS011;26591;43.264;26.940;2023-11-19T06:42:21;12.57;;;8.40;;
40871;SDS011;26591;43.264;26.940;2023-11-19T06:44:46;9.77;;;7.15;;
40871;SDS011;26591;43.264;26.940;2023-11-19T06:47:12;9.20;;;6.20;;
40871;SDS011;26591;43.264;26.940;2023-11-19T06:49:37;11.52;;;8.30;;
40871;SDS011;26591;43.264;26.940;2023-11-19T06:52:03;13.93;;;9.65;;
40871;SDS011;26591;43.264;26.940;2023-11-19T06:54:29;13.38;;;8.68;;
40871;SDS011;26591;43.264;26.940;2023-11-19T06:56:55;11.50;;;8.35;;
40871;SDS011;26591;43.264;26.940;2023-11-19T06:59:22;11.88;;;8.25;;
40871;SDS011;26591;43.264;26.940;2023-11-19T07:01:52;13.30;;;8.80;;
40871;SDS011;26591;43.264;26.940;2023-11-19T07:04:17;13.85;;;8.98;;
40871;SDS011;26591;43.264;26.940;2023-11-19T07:06:43;12.45;;;9.32;;
40871;SDS011;26591;43.264;26.940;2023-11-19T07:09:09;11.15;;;7.68;;
40871;SDS011;26591;43.264;26.940;2023-11-19T07:11:35;41.50;;;24.83;;
40871;SDS011;26591;43.264;26.940;2023-11-19T07:14:03;19.42;;;10.95;;
40871;SDS011;26591;43.264;26.940;2023-11-19T07:16:29;12.02;;;8.32;;
40871;SDS011;26591;43.264;26.940;2023-11-19T07:18:55;11.48;;;8.75;;
40871;SDS011;26591;43.264;26.940;2023-11-19T07:21:21;13.55;;;9.05;;
40871;SDS011;26591;43.264;26.940;2023-11-19T07:23:47;14.30;;;9.70;;
40871;SDS011;26591;43.264;26.940;2023-11-19T07:26:14;11.82;;;7.60;;
40871;SDS011;26591;43.264;26.940;2023-11-19T07:28:40;11.05;;;7.88;;
40871;SDS011;26591;43.264;26.940;2023-11-19T07:31:05;10.38;;;7.10;;
40871;SDS011;26591;43.264;26.940;2023-11-19T07:33:33;11.82;;;8.85;;
40871;SDS011;26591;43.264;26.940;2023-11-19T07:35:58;13.13;;;8.55;;
40871;SDS011;26591;43.264;26.940;2023-11-19T07:38:24;12.45;;;8.57;;
40871;SDS011;26591;43.264;26.940;2023-11-19T07:40:49;11.10;;;8.50;;
40871;SDS011;26591;43.264;26.940;2023-11-19T07:43:15;13.63;;;8.52;;
40871;SDS011;26591;43.264;26.940;2023-11-19T07:45:41;11.77;;;8.48;;
40871;SDS011;26591;43.264;26.940;2023-11-19T07:48:09;10.85;;;7.28;;
40871;SDS011;26591;43.264;26.940;2023-11-19T07:50:35;14.20;;;9.88;;
40871;SDS011;26591;43.264;26.940;2023-11-19T07:53:07;12.55;;;8.40;;
40871;SDS011;26591;43.264;26.940;2023-11-19T07:55:33;10.40;;;7.95;;
40871;SDS011;26591;43.264;26.940;2023-11-19T07:57:59;14.70;;;7.10;;
40871;SDS011;26591;43.264;26.940;2023-11-19T08:00:25;12.98;;;8.38;;
40871;SDS011;26591;43.264;26.940;2023-11-19T08:02:50;11.85;;;7.53;;
40871;SDS011;26591;43.264;26.940;2023-11-19T08:05:15;10.30;;;6.07;;
40871;SDS011;26591;43.264;26.940;2023-11-19T08:07:41;9.98;;;7.00;;
40871;SDS011;26591;43.264;26.940;2023-11-19T08:10:06;8.35;;;6.38;;
40871;SDS011;26591;43.264;26.940;2023-11-19T08:12:35;9.45;;;7.85;;
40871;SDS011;26591;43.264;26.940;2023-11-19T08:15:04;9.95;;;6.40;;
40871;SDS011;26591;43.264;26.940;2023-11-19T08:17:30;15.65;;;8.35;;
40871;SDS011;26591;43.264;26.940;2023-11-19T08:19:56;7.40;;;5.97;;
40871;SDS011;26591;43.264;26.940;2023-11-19T08:22:21;8.65;;;5.75;;
40871;SDS011;26591;43.264;26.940;2023-11-19T08:24:47;8.98;;;6.28;;
40871;SDS011;26591;43.264;26.940;2023-11-19T08:27:13;8.88;;;6.90;;
40871;SDS011;26591;43.264;26.940;2023-11-19T08:29:39;14.73;;;7.55;;
40871;SDS011;26591;43.264;26.940;2023-11-19T08:32:05;13.70;;;7.97;;
40871;SDS011;26591;43.264;26.940;2023-11-19T08:34:32;10.75;;;7.18;;
40871;SDS011;26591;43.264;26.940;2023-11-19T08:36:57;7.93;;;6.32;;
40871;SDS011;26591;43.264;26.940;2023-11-19T08:39:23;12.77;;;8.98;;
40871;SDS011;26591;43.264;26.940;2023-11-19T08:41:49;10.25;;;6.18;;
40871;SDS011;26591;43.264;26.940;2023-11-19T08:44:15;22.25;;;10.43;;
40871;SDS011;26591;43.264;26.940;2023-11-19T08:46:50;12.07;;;8.60;;
40871;SDS011;26591;43.264;26.940;2023-11-19T08:49:16;7.70;;;5.68;;
40871;SDS011;26591;43.264;26.940;2023-11-19T08:51:44;9.38;;;6.53;;
40871;SDS011;26591;43.264;26.940;2023-11-19T08:54:12;12.75;;;6.38;;
40871;SDS011;26591;43.264;26.940;2023-11-19T08:56:39;10.25;;;6.70;;
40871;SDS011;26591;43.264;26.940;2023-11-19T08:59:04;8.20;;;5.80;;
40871;SDS011;26591;43.264;26.940;2023-11-19T09:01:30;8.95;;;5.55;;
40871;SDS011;26591;43.264;26.940;2023-11-19T09:03:56;10.88;;;7.35;;
40871;SDS011;26591;43.264;26.940;2023-11-19T09:06:22;9.60;;;6.18;;
40871;SDS011;26591;43.264;26.940;2023-11-19T09:08:48;9.60;;;6.43;;
40871;SDS011;26591;43.264;26.940;2023-11-19T09:11:13;9.00;;;6.28;;
40871;SDS011;26591;43.264;26.940;2023-11-19T09:13:38;14.18;;;7.65;;
40871;SDS011;26591;43.264;26.940;2023-11-19T09:16:04;11.18;;;6.45;;
40871;SDS011;26591;43.264;26.940;2023-11-19T09:18:30;9.45;;;6.65;;
40871;SDS011;26591;43.264;26.940;2023-11-19T09:20:57;8.00;;;6.05;;
40871;SDS011;26591;43.264;26.940;2023-11-19T09:23:22;7.78;;;5.75;;
40871;SDS011;26591;43.264;26.940;2023-11-19T09:25:49;11.38;;;7.82;;
40871;SDS011;26591;43.264;26.940;2023-11-19T09:28:15;11.32;;;7.43;;
40871;SDS011;26591;43.264;26.940;2023-11-19T09:30:40;7.47;;;5.95;;
40871;SDS011;26591;43.264;26.940;2023-11-19T09:33:05;9.32;;;6.07;;
40871;SDS011;26591;43.264;26.940;2023-11-19T09:35:33;9.43;;;7.05;;
40871;SDS011;26591;43.264;26.940;2023-11-19T09:37:59;12.77;;;8.00;;
40871;SDS011;26591;43.264;26.940;2023-11-19T09:43:45;8.82;;;6.75;;
40871;SDS011;26591;43.264;26.940;2023-11-19T09:46:13;10.48;;;7.22;;
40871;SDS011;26591;43.264;26.940;2023-11-19T09:48:40;9.55;;;6.75;;
40871;SDS011;26591;43.264;26.940;2023-11-19T09:51:07;12.68;;;7.47;;
40871;SDS011;26591;43.264;26.940;2023-11-19T09:53:37;11.63;;;8.02;;
40871;SDS011;26591;43.264;26.940;2023-11-19T09:56:03;10.40;;;7.57;;
40871;SDS011;26591;43.264;26.940;2023-11-19T09:58:30;9.48;;;7.32;;
40871;SDS011;26591;43.264;26.940;2023-11-19T10:00:56;29.60;;;9.70;;
40871;SDS011;26591;43.264;26.940;2023-11-19T10:03:34;18.20;;;8.48;;
40871;SDS011;26591;43.264;26.940;2023-11-19T10:06:03;24.60;;;8.18;;
40871;SDS011;26591;43.264;26.940;2023-11-19T10:08:29;16.73;;;10.20;;
40871;SDS011;26591;43.264;26.940;2023-11-19T10:10:55;10.32;;;7.88;;
40871;SDS011;26591;43.264;26.940;2023-11-19T10:13:25;11.90;;;8.77;;
40871;SDS011;26591;43.264;26.940;2023-11-19T10:15:52;11.43;;;7.95;;
40871;SDS011;26591;43.264;26.940;2023-11-19T10:18:18;14.50;;;10.05;;
40871;SDS011;26591;43.264;26.940;2023-11-19T10:20:43;12.38;;;8.77;;
40871;SDS011;26591;43.264;26.940;2023-11-19T10:23:11;10.75;;;7.82;;
40871;SDS011;26591;43.264;26.940;2023-11-19T10:25:37;13.77;;;10.00;;
40871;SDS011;26591;43.264;26.940;2023-11-19T10:28:02;12.35;;;7.85;;
40871;SDS011;26591;43.264;26.940;2023-11-19T10:30:28;9.88;;;7.72;;
40871;SDS011;26591;43.264;26.940;2023-11-19T10:33:11;12.60;;;9.35;;
40871;SDS011;26591;43.264;26.940;2023-11-19T10:38:22;12.70;;;8.68;;
40871;SDS011;26591;43.264;26.940;2023-11-19T10:40:48;17.15;;;10.85;;
40871;SDS011;26591;43.264;26.940;2023-11-19T10:43:14;16.52;;;11.50;;
40871;SDS011;26591;43.264;26.940;2023-11-19T10:45:40;14.48;;;9.98;;
40871;SDS011;26591;43.264;26.940;2023-11-19T10:48:06;12.32;;;8.10;;
40871;SDS011;26591;43.264;26.940;2023-11-19T10:50:38;12.55;;;9.88;;
40871;SDS011;26591;43.264;26.940;2023-11-19T10:53:05;12.30;;;9.40;;
40871;SDS011;26591;43.264;26.940;2023-11-19T10:55:35;10.95;;;8.75;;
40871;SDS011;26591;43.264;26.940;2023-11-19T10:58:04;12.95;;;7.95;;
40871;SDS011;26591;43.264;26.940;2023-11-19T11:00:34;9.65;;;7.45;;
40871;SDS011;26591;43.264;26.940;2023-11-19T11:03:21;12.52;;;8.65;;
40871;SDS011;26591;43.264;26.940;2023-11-19T11:05:50;16.23;;;8.32;;
40871;SDS011;26591;43.264;26.940;2023-11-19T11:08:19;16.48;;;9.30;;
40871;SDS011;26591;43.264;26.940;2023-11-19T11:10:55;15.75;;;8.13;;
40871;SDS011;26591;43.264;26.940;2023-11-19T11:13:22;14.07;;;8.90;;
40871;SDS011;26591;43.264;26.940;2023-11-19T11:15:49;14.57;;;8.88;;
40871;SDS011;26591;43.264;26.940;2023-11-19T11:18:15;17.38;;;8.93;;
40871;SDS011;26591;43.264;26.940;2023-11-19T11:20:44;13.48;;;9.13;;
40871;SDS011;26591;43.264;26.940;2023-11-19T11:23:30;13.95;;;8.27;;
40871;SDS011;26591;43.264;26.940;2023-11-19T11:37:18;14.25;;;8.52;;
40871;SDS011;26591;43.264;26.940;2023-11-19T11:39:51;13.82;;;9.20;;
40871;SDS011;26591;43.264;26.940;2023-11-19T11:45:01;11.85;;;8.60;;
40871;SDS011;26591;43.264;26.940;2023-11-19T11:50:17;9.15;;;5.43;;
40871;SDS011;26591;43.264;26.940;2023-11-19T11:57:54;7.75;;;5.40;;
40871;SDS011;26591;43.264;26.940;2023-11-19T12:02:57;4.75;;;3.70;;
40871;SDS011;26591;43.264;26.940;2023-11-19T12:05:25;19.63;;;9.93;;
40871;SDS011;26591;43.264;26.940;2023-11-19T12:07:57;6.60;;;4.75;;
40871;SDS011;26591;43.264;26.940;2023-11-19T12:10:29;5.03;;;3.67;;
40871;SDS011;26591;43.264;26.940;2023-11-19T12:13:00;6.20;;;3.65;;
40871;SDS011;26591;43.264;26.940;2023-11-19T12:15:27;7.22;;;4.35;;
40871;SDS011;26591;43.264;26.940;2023-11-19T12:17:53;9.65;;;5.28;;
40871;SDS011;26591;43.264;26.940;2023-11-19T12:20:23;7.72;;;4.97;;
40871;SDS011;26591;43.264;26.940;2023-11-19T12:22:51;6.90;;;4.30;;
40871;SDS011;26591;43.264;26.940;2023-11-19T12:25:17;8.40;;;4.40;;
40871;SDS011;26591;43.264;26.940;2023-11-19T12:27:48;5.97;;;4.13;;
40871;SDS011;26591;43.264;26.940;2023-11-19T12:30:17;6.07;;;4.45;;
40871;SDS011;26591;43.264;26.940;2023-11-19T12:32:49;6.78;;;4.43;;
40871;SDS011;26591;43.264;26.940;2023-11-19T12:35:15;6.88;;;4.28;;
40871;SDS011;26591;43.264;26.940;2023-11-19T12:40:20;7.65;;;5.28;;
40871;SDS011;26591;43.264;26.940;2023-11-19T12:45:13;8.38;;;5.97;;
40871;SDS011;26591;43.264;26.940;2023-11-19T12:47:42;9.05;;;7.05;;
40871;SDS011;26591;43.264;26.940;2023-11-19T12:50:09;9.52;;;6.00;;
40871;SDS011;26591;43.264;26.940;2023-11-19T12:52:35;11.50;;;6.95;;
40871;SDS011;26591;43.264;26.940;2023-11-19T12:55:05;9.85;;;6.65;;
40871;SDS011;26591;43.264;26.940;2023-11-19T12:57:48;9.30;;;5.45;;
40871;SDS011;26591;43.264;26.940;2023-11-19T13:00:24;8.40;;;6.22;;
40871;SDS011;26591;43.264;26.940;2023-11-19T13:02:51;7.43;;;5.60;;
40871;SDS011;26591;43.264;26.940;2023-11-19T13:07:49;8.80;;;5.05;;
40871;SDS011;26591;43.264;26.940;2023-11-19T13:10:15;8.75;;;5.93;;
40871;SDS011;26591;43.264;26.940;2023-11-19T13:12:40;9.73;;;6.88;;
40871;SDS011;26591;43.264;26.940;2023-11-19T13:15:06;8.57;;;6.28;;
40871;SDS011;26591;43.264;26.940;2023-11-19T13:17:32;29.80;;;20.13;;
40871;SDS011;26591;43.264;26.940;2023-11-19T13:19:57;12.15;;;8.40;;
40871;SDS011;26591;43.264;26.940;2023-11-19T13:22:23;14.95;;;8.82;;
40871;SDS011;26591;43.264;26.940;2023-11-19T13:24:48;9.98;;;7.55;;
40871;SDS011;26591;43.264;26.940;2023-11-19T13:27:14;10.13;;;7.65;;
40871;SDS011;26591;43.264;26.940;2023-11-19T13:29:39;12.13;;;6.65;;
40871;SDS011;26591;43.264;26.940;2023-11-19T13:32:06;11.65;;;7.53;;
40871;SDS011;26591;43.264;26.940;2023-11-19T13:34:31;10.48;;;7.25;;
40871;SDS011;26591;43.264;26.940;2023-11-19T13:36:57;9.07;;;6.80;;
40871;SDS011;26591;43.264;26.940;2023-11-19T13:39:22;13.18;;;9.40;;
40871;SDS011;26591;43.264;26.940;2023-11-19T13:41:48;11.15;;;8.57;;
40871;SDS011;26591;43.264;26.940;2023-11-19T13:44:15;9.57;;;7.10;;
40871;SDS011;26591;43.264;26.940;2023-11-19T13:46:44;8.63;;;6.65;;
40871;SDS011;26591;43.264;26.940;2023-11-19T13:49:10;11.90;;;7.82;;
40871;SDS011;26591;43.264;26.940;2023-11-19T13:51:35;12.38;;;8.27;;
40871;SDS011;26591;43.264;26.940;2023-11-19T13:54:01;12.15;;;8.00;;
40871;SDS011;26591;43.264;26.940;2023-11-19T13:56:26;31.92;;;13.23;;
40871;SDS011;26591;43.264;26.940;2023-11-19T13:58:52;10.90;;;7.50;;
40871;SDS011;26591;43.264;26.940;2023-11-19T14:01:18;11.55;;;7.43;;
40871;SDS011;26591;43.264;26.940;2023-11-19T14:03:44;8.43;;;6.05;;
40871;SDS011;26591;43.264;26.940;2023-11-19T14:06:09;7.85;;;5.63;;
40871;SDS011;26591;43.264;26.940;2023-11-19T14:08:35;7.03;;;5.43;;
40871;SDS011;26591;43.264;26.940;2023-11-19T14:11:02;8.27;;;5.75;;
40871;SDS011;26591;43.264;26.940;2023-11-19T14:13:27;8.07;;;5.72;;
40871;SDS011;26591;43.264;26.940;2023-11-19T14:15:53;9.60;;;6.45;;
40871;SDS011;26591;43.264;26.940;2023-11-19T14:18:18;10.10;;;6.03;;
40871;SDS011;26591;43.264;26.940;2023-11-19T14:20:44;8.40;;;6.45;;
40871;SDS011;26591;43.264;26.940;2023-11-19T14:23:10;13.57;;;8.15;;
40871;SDS011;26591;43.264;26.940;2023-11-19T14:25:35;9.18;;;6.85;;
40871;SDS011;26591;43.264;26.940;2023-11-19T14:28:01;12.80;;;8.93;;
40871;SDS011;26591;43.264;26.940;2023-11-19T14:30:26;13.05;;;7.13;;
40871;SDS011;26591;43.264;26.940;2023-11-19T14:32:51;16.58;;;10.43;;
40871;SDS011;26591;43.264;26.940;2023-11-19T14:35:18;27.58;;;13.77;;
40871;SDS011;26591;43.264;26.940;2023-11-19T14:37:45;22.40;;;11.05;;
40871;SDS011;26591;43.264;26.940;2023-11-19T14:40:11;15.00;;;10.80;;
40871;SDS011;26591;43.264;26.940;2023-11-19T14:42:36;11.27;;;8.02;;
40871;SDS011;26591;43.264;26.940;2023-11-19T14:45:04;13.20;;;8.98;;
40871;SDS011;26591;43.264;26.940;2023-11-19T14:47:30;9.80;;;7.72;;
40871;SDS011;26591;43.264;26.940;2023-11-19T14:49:55;10.05;;;7.15;;
40871;SDS011;26591;43.264;26.940;2023-11-19T14:52:21;8.98;;;7.15;;
40871;SDS011;26591;43.264;26.940;2023-11-19T14:54:46;10.13;;;7.07;;
40871;SDS011;26591;43.264;26.940;2023-11-19T14:57:12;11.38;;;7.60;;
40871;SDS011;26591;43.264;26.940;2023-11-19T14:59:38;11.95;;;8.05;;
40871;SDS011;26591;43.264;26.940;2023-11-19T15:02:04;18.25;;;12.48;;